createdAt,value
2022-10-11T00:00:32.683Z,9.07
2022-10-11T00:01:07.400Z,9.07
2022-10-11T00:01:39.612Z,9.07
2022-10-11T00:02:11.781Z,9.08
2022-10-11T00:02:46.498Z,9.09
2022-10-11T00:03:18.710Z,9.09
2022-10-11T00:03:50.780Z,9.10
2022-10-11T00:04:28.063Z,9.11
2022-10-11T00:05:00.228Z,9.12
2022-10-11T00:05:32.523Z,9.11
2022-10-11T00:06:08.014Z,9.12
2022-10-11T00:06:43.383Z,9.10
2022-10-11T00:07:15.457Z,9.09
2022-10-11T00:07:50.095Z,9.10
2022-10-11T00:08:22.408Z,9.10
2022-10-11T00:08:54.483Z,9.09
2022-10-11T00:09:29.206Z,9.11
2022-10-11T00:10:01.338Z,9.10
2022-10-11T00:10:33.858Z,9.11
2022-10-11T00:11:10.063Z,9.10
2022-10-11T00:11:42.966Z,9.08
2022-10-11T00:12:15.047Z,9.08
2022-10-11T00:12:52.394Z,9.09
2022-10-11T00:13:24.479Z,9.07
2022-10-11T00:13:56.606Z,9.07
2022-10-11T00:14:28.797Z,9.07
2022-10-11T00:15:03.537Z,9.07
2022-10-11T00:15:35.731Z,9.06
2022-10-11T00:16:09.876Z,9.05
2022-10-11T00:16:45.288Z,9.06
2022-10-11T00:17:17.403Z,9.03
2022-10-11T00:17:49.824Z,9.02
2022-10-11T00:18:25.002Z,9.00
2022-10-11T00:18:57.112Z,8.95
2022-10-11T00:19:32.338Z,8.94
2022-10-11T00:20:07.862Z,8.91
2022-10-11T00:20:39.991Z,8.89
2022-10-11T00:21:14.642Z,8.88
2022-10-11T00:21:50.005Z,8.85
2022-10-11T00:22:22.187Z,8.83
2022-10-11T00:22:54.241Z,8.83
2022-10-11T00:23:28.935Z,8.84
2022-10-11T00:24:01.019Z,8.84
2022-10-11T00:24:35.735Z,8.85
2022-10-11T00:25:10.175Z,8.86
2022-10-11T00:25:42.367Z,8.84
2022-10-11T00:26:17.843Z,8.86
2022-10-11T00:26:49.947Z,8.84
2022-10-11T00:27:22.055Z,8.85
2022-10-11T00:27:57.331Z,8.85
2022-10-11T00:28:29.920Z,8.84
2022-10-11T00:29:02.085Z,8.84
2022-10-11T00:29:36.750Z,8.84
2022-10-11T00:30:10.126Z,8.83
2022-10-11T00:30:43.439Z,8.82
2022-10-11T00:31:18.583Z,8.81
2022-10-11T00:31:50.724Z,8.80
2022-10-11T00:32:22.873Z,8.80
2022-10-11T00:32:57.518Z,8.80
2022-10-11T00:33:29.593Z,8.81
2022-10-11T00:34:01.935Z,8.83
2022-10-11T00:34:36.618Z,8.82
2022-10-11T00:35:12.374Z,8.81
2022-10-11T00:35:44.717Z,8.79
2022-10-11T00:36:17.619Z,8.80
2022-10-11T00:36:52.266Z,8.80
2022-10-11T00:37:24.346Z,8.79
2022-10-11T00:37:57.182Z,8.81
2022-10-11T00:38:31.672Z,8.79
2022-10-11T00:39:06.914Z,8.79
2022-10-11T00:39:39.126Z,8.79
2022-10-11T00:40:17.628Z,8.77
2022-10-11T00:40:52.331Z,8.75
2022-10-11T00:41:24.389Z,8.74
2022-10-11T00:41:56.793Z,8.75
2022-10-11T00:42:31.451Z,8.75
2022-10-11T00:43:03.892Z,8.75
2022-10-11T00:43:36.869Z,8.75
2022-10-11T00:44:17.068Z,8.75
2022-10-11T00:44:51.017Z,8.74
2022-10-11T00:45:58.839Z,8.72
2022-10-11T00:46:35.272Z,8.69
2022-10-11T00:47:10.797Z,8.70
2022-10-11T00:47:42.898Z,8.70
2022-10-11T00:48:19.015Z,8.73
2022-10-11T00:48:58.704Z,8.74
2022-10-11T00:49:37.211Z,8.68
2022-10-11T00:50:11.130Z,8.65
2022-10-11T00:50:46.033Z,8.62
2022-10-11T00:51:21.385Z,8.60
2022-10-11T00:51:57.498Z,8.55
2022-10-11T00:52:35.684Z,8.52
2022-10-11T00:53:11.468Z,8.50
2022-10-11T00:53:44.253Z,8.46
2022-10-11T00:54:21.803Z,8.46
2022-10-11T00:54:54.026Z,8.43
2022-10-11T00:55:29.601Z,8.43
2022-10-11T00:56:09.684Z,8.38
2022-10-11T00:56:44.178Z,8.34
2022-10-11T00:57:20.293Z,8.33
2022-10-11T00:57:56.357Z,8.32
2022-10-11T00:58:28.766Z,8.32
2022-10-11T00:59:04.424Z,8.30
2022-10-11T00:59:42.708Z,8.28
2022-10-11T01:00:16.459Z,8.27
2022-10-11T01:00:48.690Z,8.27
2022-10-11T01:01:23.580Z,8.27
2022-10-11T01:01:56.034Z,8.27
2022-10-11T01:02:30.938Z,8.28
2022-10-11T01:03:04.948Z,8.30
2022-10-11T01:03:38.943Z,8.30
2022-10-11T01:04:13.696Z,8.31
2022-10-11T01:04:57.322Z,8.34
2022-10-11T01:05:40.064Z,8.30
2022-10-11T01:06:14.738Z,8.32
2022-10-11T01:06:47.807Z,8.35
2022-10-11T01:07:23.939Z,8.36
2022-10-11T01:07:56.336Z,8.37
2022-10-11T01:08:28.601Z,8.39
2022-10-11T01:09:03.281Z,8.40
2022-10-11T01:09:35.540Z,8.41
2022-10-11T01:10:08.441Z,8.41
2022-10-11T01:10:40.590Z,8.42
2022-10-11T01:11:17.584Z,8.42
2022-10-11T01:11:53.046Z,8.41
2022-10-11T01:12:32.033Z,8.41
2022-10-11T01:13:12.665Z,8.39
2022-10-11T01:13:54.866Z,8.39
2022-10-11T01:14:45.717Z,8.38
2022-10-11T01:15:25.786Z,8.36
2022-10-11T01:16:05.971Z,8.36
2022-10-11T01:16:46.854Z,8.29
2022-10-11T01:17:25.427Z,8.29
2022-10-11T01:18:04.314Z,8.30
2022-10-11T01:18:51.793Z,8.32
2022-10-11T01:19:44.714Z,8.30
2022-10-11T01:20:45.854Z,8.27
2022-10-11T01:21:31.471Z,8.28
2022-10-11T01:22:21.689Z,8.28
2022-10-11T01:23:24.324Z,8.25
2022-10-11T01:24:32.986Z,8.22
2022-10-11T01:25:19.619Z,8.21
2022-10-11T01:26:18.624Z,8.21
2022-10-11T01:27:18.886Z,8.19
2022-10-11T01:28:20.879Z,8.16
2022-10-11T01:29:04.014Z,8.14
2022-10-11T01:29:49.578Z,8.15
2022-10-11T01:30:28.681Z,8.13
2022-10-11T01:31:07.134Z,8.14
2022-10-11T01:31:46.795Z,8.15
2022-10-11T01:32:25.946Z,8.14
2022-10-11T01:33:13.307Z,8.13
2022-10-11T01:33:54.721Z,8.12
2022-10-11T01:34:34.708Z,8.11
2022-10-11T01:35:10.807Z,8.09
2022-10-11T01:35:52.403Z,8.05
2022-10-11T01:36:32.075Z,8.04
2022-10-11T01:37:13.885Z,7.99
2022-10-11T01:37:51.710Z,8.02
2022-10-11T01:38:28.098Z,7.96
2022-10-11T01:39:07.799Z,7.96
2022-10-11T01:39:46.549Z,7.94
2022-10-11T01:40:25.020Z,7.93
2022-10-11T01:41:03.077Z,7.95
2022-10-11T01:41:38.744Z,7.96
2022-10-11T01:42:13.364Z,7.97
2022-10-11T01:42:48.633Z,7.98
2022-10-11T01:43:22.965Z,7.98
2022-10-11T01:43:59.121Z,7.97
2022-10-11T01:44:34.931Z,7.95
2022-10-11T01:45:13.249Z,7.95
2022-10-11T01:45:52.647Z,7.91
2022-10-11T01:46:25.250Z,7.90
2022-10-11T01:46:57.408Z,7.90
2022-10-11T01:47:32.070Z,7.90
2022-10-11T01:48:06.712Z,7.89
2022-10-11T01:48:48.374Z,7.86
2022-10-11T01:49:23.602Z,7.85
2022-10-11T01:49:57.407Z,7.84
2022-10-11T01:50:41.729Z,7.81
2022-10-11T01:51:16.922Z,7.80
2022-10-11T01:51:53.156Z,7.80
2022-10-11T01:52:27.314Z,7.80
2022-10-11T01:53:10.484Z,7.83
2022-10-11T01:54:05.281Z,7.79
2022-10-11T01:55:50.822Z,7.72
2022-10-11T01:56:36.786Z,7.73
2022-10-11T01:57:44.034Z,7.71
2022-10-11T01:58:29.832Z,7.69
2022-10-11T01:59:15.934Z,7.69
2022-10-11T02:00:03.511Z,7.70
2022-10-11T02:00:51.858Z,7.70
2022-10-11T02:01:31.059Z,7.71
2022-10-11T02:02:18.575Z,7.72
2022-10-11T02:03:05.409Z,7.72
2022-10-11T02:03:48.423Z,7.71
2022-10-11T02:04:30.026Z,7.71
2022-10-11T02:05:12.263Z,7.72
2022-10-11T02:05:49.980Z,7.71
2022-10-11T02:06:32.509Z,7.71
2022-10-11T02:07:14.118Z,7.71
2022-10-11T02:07:53.149Z,7.71
2022-10-11T02:08:32.122Z,7.71
2022-10-11T02:09:15.210Z,7.66
2022-10-11T02:09:52.931Z,7.62
2022-10-11T02:10:33.433Z,7.59
2022-10-11T02:11:10.127Z,7.58
2022-10-11T02:11:42.920Z,7.58
2022-10-11T02:12:26.292Z,7.58
2022-10-11T02:13:04.306Z,7.55
2022-10-11T02:13:44.053Z,7.55
2022-10-11T02:14:20.760Z,7.53
2022-10-11T02:14:54.339Z,7.53
2022-10-11T02:15:32.402Z,7.53
2022-10-11T02:16:12.827Z,7.52
2022-10-11T02:16:46.475Z,7.44
2022-10-11T02:17:26.055Z,7.46
2022-10-11T02:18:02.504Z,7.45
2022-10-11T02:18:40.098Z,7.46
2022-10-11T02:19:19.795Z,7.44
2022-10-11T02:19:54.709Z,7.44
2022-10-11T02:20:30.690Z,7.44
2022-10-11T02:21:08.783Z,7.44
2022-10-11T02:21:44.656Z,7.44
2022-10-11T02:22:23.030Z,7.43
2022-10-11T02:23:02.561Z,7.42
2022-10-11T02:23:40.934Z,7.42
2022-10-11T02:24:17.437Z,7.43
2022-10-11T02:24:56.501Z,7.44
2022-10-11T02:25:33.390Z,7.43
2022-10-11T02:26:09.865Z,7.41
2022-10-11T02:26:47.481Z,7.42
2022-10-11T02:27:23.395Z,7.40
2022-10-11T02:28:02.371Z,7.39
2022-10-11T02:28:37.472Z,7.38
2022-10-11T02:29:15.206Z,7.38
2022-10-11T02:29:52.738Z,7.39
2022-10-11T02:30:25.085Z,7.37
2022-10-11T02:31:00.475Z,7.37
2022-10-11T02:31:39.220Z,7.36
2022-10-11T02:32:12.706Z,7.36
2022-10-11T02:32:47.797Z,7.36
2022-10-11T02:33:29.517Z,7.37
2022-10-11T02:34:09.949Z,7.39
2022-10-11T02:34:45.277Z,7.32
2022-10-11T02:35:20.606Z,7.34
2022-10-11T02:35:59.184Z,7.38
2022-10-11T02:36:41.956Z,7.39
2022-10-11T02:37:22.106Z,7.41
2022-10-11T02:37:59.262Z,7.42
2022-10-11T02:38:37.679Z,7.44
2022-10-11T02:39:18.121Z,7.45
2022-10-11T02:39:53.958Z,7.38
2022-10-11T02:40:31.378Z,7.39
2022-10-11T02:41:12.306Z,7.43
2022-10-11T02:41:46.815Z,7.42
2022-10-11T02:42:23.968Z,7.49
2022-10-11T02:43:03.787Z,7.45
2022-10-11T02:43:41.670Z,7.44
2022-10-11T02:44:20.149Z,7.45
2022-10-11T02:45:01.270Z,7.43
2022-10-11T02:45:37.980Z,7.43
2022-10-11T02:46:11.367Z,7.43
2022-10-11T02:46:50.239Z,7.44
2022-10-11T02:47:22.558Z,7.43
2022-10-11T02:47:55.263Z,7.44
2022-10-11T02:48:31.119Z,7.44
2022-10-11T02:49:04.138Z,7.41
2022-10-11T02:49:37.029Z,7.41
2022-10-11T02:50:13.523Z,7.41
2022-10-11T02:50:45.871Z,7.38
2022-10-11T02:51:18.747Z,7.39
2022-10-11T02:51:53.414Z,7.38
2022-10-11T02:52:25.791Z,7.38
2022-10-11T02:52:57.871Z,7.39
2022-10-11T02:53:32.910Z,7.38
2022-10-11T02:54:05.453Z,7.35
2022-10-11T02:54:37.581Z,7.33
2022-10-11T02:55:14.264Z,7.33
2022-10-11T02:55:47.892Z,7.31
2022-10-11T02:56:19.995Z,7.27
2022-10-11T02:56:54.962Z,7.26
2022-10-11T02:57:27.122Z,7.25
2022-10-11T02:58:00.302Z,7.23
2022-10-11T02:58:34.953Z,7.24
2022-10-11T02:59:07.036Z,7.23
2022-10-11T02:59:39.118Z,7.20
2022-10-11T03:00:15.581Z,7.20
2022-10-11T03:00:48.050Z,7.15
2022-10-11T03:01:20.265Z,7.13
2022-10-11T03:01:57.733Z,7.10
2022-10-11T03:02:29.850Z,7.06
2022-10-11T03:03:01.936Z,7.06
2022-10-11T03:03:36.578Z,7.05
2022-10-11T03:04:08.686Z,7.04
2022-10-11T03:04:40.766Z,7.05
2022-10-11T03:05:15.414Z,7.04
2022-10-11T03:05:47.551Z,7.06
2022-10-11T03:06:19.679Z,7.07
2022-10-11T03:06:54.339Z,7.08
2022-10-11T03:07:26.610Z,7.09
2022-10-11T03:07:58.700Z,7.08
2022-10-11T03:08:33.455Z,7.09
2022-10-11T03:09:05.643Z,7.09
2022-10-11T03:09:37.714Z,7.10
2022-10-11T03:10:13.165Z,7.11
2022-10-11T03:10:45.336Z,7.11
2022-10-11T03:11:17.443Z,7.11
2022-10-11T03:11:49.638Z,7.12
2022-10-11T03:12:24.540Z,7.12
2022-10-11T03:12:56.785Z,7.12
2022-10-11T03:13:28.946Z,7.12
2022-10-11T03:14:03.635Z,7.11
2022-10-11T03:14:35.700Z,7.10
2022-10-11T03:15:08.503Z,7.07
2022-10-11T03:15:43.143Z,7.05
2022-10-11T03:16:15.417Z,7.00
2022-10-11T03:16:47.668Z,7.00
2022-10-11T03:17:35.985Z,7.00
2022-10-11T03:18:08.994Z,6.96
2022-10-11T03:18:41.075Z,6.97
2022-10-11T03:19:19.179Z,6.96
2022-10-11T03:19:51.620Z,6.95
2022-10-11T03:20:24.408Z,6.95
2022-10-11T03:20:56.516Z,6.95
2022-10-11T03:21:31.225Z,6.97
2022-10-11T03:22:03.339Z,6.97
2022-10-11T03:22:35.626Z,6.94
2022-10-11T03:23:10.333Z,6.93
2022-10-11T03:23:42.708Z,6.94
2022-10-11T03:24:14.812Z,6.94
2022-10-11T03:24:46.916Z,6.92
2022-10-11T03:25:21.590Z,6.93
2022-10-11T03:25:53.729Z,6.92
2022-10-11T03:26:25.851Z,6.92
2022-10-11T03:26:57.946Z,6.90
2022-10-11T03:27:32.615Z,6.89
2022-10-11T03:28:05.355Z,6.87
2022-10-11T03:28:37.486Z,6.86
2022-10-11T03:29:12.208Z,6.88
2022-10-11T03:29:44.295Z,6.87
2022-10-11T03:30:18.285Z,6.90
2022-10-11T03:30:54.644Z,6.86
2022-10-11T03:31:26.959Z,6.86
2022-10-11T03:31:59.370Z,6.87
2022-10-11T03:32:34.039Z,6.87
2022-10-11T03:33:08.730Z,6.86
2022-10-11T03:33:40.863Z,6.88
2022-10-11T03:34:13.063Z,6.89
2022-10-11T03:34:47.731Z,6.90
2022-10-11T03:35:19.934Z,6.91
2022-10-11T03:35:52.041Z,6.92
2022-10-11T03:36:26.702Z,6.94
2022-10-11T03:36:58.844Z,6.95
2022-10-11T03:37:30.947Z,6.96
2022-10-11T03:38:06.000Z,6.97
2022-10-11T03:38:39.106Z,6.98
2022-10-11T03:39:11.254Z,6.98
2022-10-11T03:39:45.981Z,6.99
2022-10-11T03:40:18.203Z,6.97
2022-10-11T03:40:50.310Z,6.98
2022-10-11T03:41:25.094Z,6.97
2022-10-11T03:41:57.235Z,6.96
2022-10-11T03:42:29.818Z,6.94
2022-10-11T03:43:02.065Z,6.95
2022-10-11T03:43:37.378Z,6.94
2022-10-11T03:44:09.460Z,6.95
2022-10-11T03:44:42.290Z,6.94
2022-10-11T03:45:17.029Z,6.93
2022-10-11T03:45:49.109Z,6.93
2022-10-11T03:46:21.402Z,6.93
2022-10-11T03:46:56.166Z,6.94
2022-10-11T03:47:28.251Z,6.94
2022-10-11T03:48:03.178Z,6.93
2022-10-11T03:48:37.882Z,6.93
2022-10-11T03:49:09.979Z,6.93
2022-10-11T03:49:43.778Z,6.94
2022-10-11T03:50:18.683Z,6.94
2022-10-11T03:50:50.794Z,6.93
2022-10-11T03:51:22.899Z,6.94
2022-10-11T03:51:57.596Z,6.94
2022-10-11T03:52:29.758Z,6.93
2022-10-11T03:53:01.889Z,6.92
2022-10-11T03:53:36.671Z,6.90
2022-10-11T03:54:08.743Z,6.86
2022-10-11T03:54:40.819Z,6.85
2022-10-11T03:55:15.548Z,6.81
2022-10-11T03:55:53.183Z,6.77
2022-10-11T03:56:25.249Z,6.75
2022-10-11T03:56:59.958Z,6.72
2022-10-11T03:57:32.115Z,6.68
2022-10-11T03:58:04.187Z,6.67
2022-10-11T03:58:38.886Z,6.64
2022-10-11T03:59:10.958Z,6.62
2022-10-11T03:59:43.087Z,6.63
2022-10-11T04:00:18.153Z,6.64
2022-10-11T04:00:50.652Z,6.65
2022-10-11T04:01:25.398Z,6.65
2022-10-11T04:01:57.527Z,6.66
2022-10-11T04:02:29.693Z,6.66
2022-10-11T04:03:07.085Z,6.66
2022-10-11T04:03:39.194Z,6.68
2022-10-11T04:04:11.261Z,6.72
2022-10-11T04:04:46.195Z,6.75
2022-10-11T04:05:18.566Z,6.76
2022-10-11T04:05:50.649Z,6.77
2022-10-11T04:06:25.446Z,6.79
2022-10-11T04:06:57.559Z,6.79
2022-10-11T04:07:29.761Z,6.79
2022-10-11T04:08:07.374Z,6.80
2022-10-11T04:08:43.262Z,6.79
2022-10-11T04:09:15.505Z,6.80
2022-10-11T04:09:50.211Z,6.81
2022-10-11T04:10:22.647Z,6.81
2022-10-11T04:10:54.770Z,6.81
2022-10-11T04:11:29.738Z,6.81
2022-10-11T04:12:02.023Z,6.82
2022-10-11T04:12:34.838Z,6.81
2022-10-11T04:13:09.630Z,6.82
2022-10-11T04:13:41.888Z,6.81
2022-10-11T04:14:13.970Z,6.82
2022-10-11T04:14:48.676Z,6.83
2022-10-11T04:15:20.815Z,6.83
2022-10-11T04:15:52.944Z,6.82
2022-10-11T04:16:27.689Z,6.83
2022-10-11T04:17:00.575Z,6.82
2022-10-11T04:17:32.838Z,6.82
2022-10-11T04:18:11.126Z,6.82
2022-10-11T04:18:43.194Z,6.82
2022-10-11T04:19:15.307Z,6.81
2022-10-11T04:19:49.971Z,6.84
2022-10-11T04:20:22.100Z,6.83
2022-10-11T04:20:54.246Z,6.84
2022-10-11T04:21:28.955Z,6.84
2022-10-11T04:22:01.042Z,6.83
2022-10-11T04:22:33.586Z,6.83
2022-10-11T04:23:08.320Z,6.84
2022-10-11T04:23:40.384Z,6.81
2022-10-11T04:24:12.873Z,6.80
2022-10-11T04:24:47.522Z,6.79
2022-10-11T04:25:19.638Z,6.77
2022-10-11T04:25:51.810Z,6.75
2022-10-11T04:26:27.659Z,6.73
2022-10-11T04:27:00.119Z,6.71
2022-10-11T04:27:32.344Z,6.71
2022-10-11T04:28:08.141Z,6.69
2022-10-11T04:28:40.324Z,6.68
2022-10-11T04:29:12.479Z,6.68
2022-10-11T04:29:47.152Z,6.69
2022-10-11T04:30:19.502Z,6.70
2022-10-11T04:30:51.614Z,6.71
2022-10-11T04:31:26.511Z,6.71
2022-10-11T04:31:58.644Z,6.68
2022-10-11T04:32:30.782Z,6.69
2022-10-11T04:33:05.416Z,6.68
2022-10-11T04:33:40.078Z,6.65
2022-10-11T04:34:12.270Z,6.61
2022-10-11T04:34:47.097Z,6.59
2022-10-11T04:35:19.231Z,6.57
2022-10-11T04:35:54.374Z,6.56
2022-10-11T04:36:29.066Z,6.54
2022-10-11T04:37:01.219Z,6.52
2022-10-11T04:37:33.449Z,6.49
2022-10-11T04:38:08.167Z,6.48
2022-10-11T04:38:40.244Z,6.47
2022-10-11T04:39:13.085Z,6.45
2022-10-11T04:39:47.749Z,6.45
2022-10-11T04:40:19.868Z,6.43
2022-10-11T04:40:51.980Z,6.41
2022-10-11T04:41:26.640Z,6.41
2022-10-11T04:41:58.805Z,6.40
2022-10-11T04:42:30.905Z,6.38
2022-10-11T04:43:05.558Z,6.36
2022-10-11T04:43:38.194Z,6.35
2022-10-11T04:44:10.270Z,6.35
2022-10-11T04:44:44.913Z,6.36
2022-10-11T04:45:17.447Z,6.36
2022-10-11T04:45:52.318Z,6.37
2022-10-11T04:46:30.308Z,6.36
2022-10-11T04:47:02.398Z,6.35
2022-10-11T04:47:34.522Z,6.35
2022-10-11T04:48:09.626Z,6.36
2022-10-11T04:48:44.742Z,6.36
2022-10-11T04:49:16.849Z,6.38
2022-10-11T04:49:51.501Z,6.37
2022-10-11T04:50:23.606Z,6.36
2022-10-11T04:50:55.815Z,6.36
2022-10-11T04:51:31.193Z,6.39
2022-10-11T04:52:03.356Z,6.40
2022-10-11T04:52:35.506Z,6.42
2022-10-11T04:53:10.981Z,6.44
2022-10-11T04:53:43.270Z,6.46
2022-10-11T04:54:15.794Z,6.48
2022-10-11T04:54:50.527Z,6.51
2022-10-11T04:55:22.590Z,6.51
2022-10-11T04:56:01.080Z,6.53
2022-10-11T04:56:36.105Z,6.54
2022-10-11T04:57:08.218Z,6.55
2022-10-11T04:57:42.960Z,6.58
2022-10-11T04:58:15.022Z,6.59
2022-10-11T04:58:48.310Z,6.61
2022-10-11T04:59:23.051Z,6.62
2022-10-11T04:59:55.114Z,6.63
2022-10-11T05:00:29.763Z,6.65
2022-10-11T05:01:01.893Z,6.67
2022-10-11T05:01:34.059Z,6.67
2022-10-11T05:02:08.782Z,6.68
2022-10-11T05:02:40.963Z,6.65
2022-10-11T05:03:13.060Z,6.62
2022-10-11T05:03:50.584Z,6.60
2022-10-11T05:04:22.774Z,6.56
2022-10-11T05:04:55.032Z,6.56
2022-10-11T05:05:29.829Z,6.53
2022-10-11T05:06:05.600Z,6.51
2022-10-11T05:06:38.175Z,6.50
2022-10-11T05:07:12.846Z,6.48
2022-10-11T05:07:44.906Z,6.47
2022-10-11T05:08:17.034Z,6.46
2022-10-11T05:08:51.663Z,6.47
2022-10-11T05:09:24.154Z,6.44
2022-10-11T05:09:56.319Z,6.45
2022-10-11T05:10:31.017Z,6.44
2022-10-11T05:11:05.830Z,6.43
2022-10-11T05:11:40.475Z,6.42
2022-10-11T05:12:12.610Z,6.44
2022-10-11T05:12:44.728Z,6.44
2022-10-11T05:13:19.374Z,6.46
2022-10-11T05:13:51.480Z,6.46
2022-10-11T05:14:26.217Z,6.47
2022-10-11T05:14:59.654Z,6.47
2022-10-11T05:15:31.751Z,6.47
2022-10-11T05:16:10.804Z,6.47
2022-10-11T05:16:43.738Z,6.48
2022-10-11T05:17:15.818Z,6.48
2022-10-11T05:17:50.507Z,6.49
2022-10-11T05:18:23.099Z,6.46
2022-10-11T05:18:57.959Z,6.48
2022-10-11T05:19:32.738Z,6.46
2022-10-11T05:20:05.974Z,6.46
2022-10-11T05:20:38.059Z,6.46
2022-10-11T05:21:21.145Z,6.46
2022-10-11T05:21:55.118Z,6.46
2022-10-11T05:22:27.191Z,6.47
2022-10-11T05:23:01.838Z,6.50
2022-10-11T05:23:35.975Z,6.50
2022-10-11T05:24:08.357Z,6.52
2022-10-11T05:24:43.040Z,6.53
2022-10-11T05:25:15.291Z,6.54
2022-10-11T05:25:47.457Z,6.57
2022-10-11T05:26:23.060Z,6.58
2022-10-11T05:26:56.330Z,6.58
2022-10-11T05:27:30.768Z,6.59
2022-10-11T05:28:05.497Z,6.61
2022-10-11T05:28:37.951Z,6.61
2022-10-11T05:29:10.053Z,6.62
2022-10-11T05:29:45.867Z,6.62
2022-10-11T05:30:18.096Z,6.63
2022-10-11T05:30:50.231Z,6.64
2022-10-11T05:31:24.969Z,6.65
2022-10-11T05:31:57.170Z,6.66
2022-10-11T05:32:29.363Z,6.66
2022-10-11T05:33:04.147Z,6.67
2022-10-11T05:33:36.432Z,6.69
2022-10-11T05:34:13.689Z,6.70
2022-10-11T05:34:45.918Z,6.70
2022-10-11T05:35:18.219Z,6.72
2022-10-11T05:35:53.042Z,6.74
2022-10-11T05:36:25.122Z,6.73
2022-10-11T05:36:57.545Z,6.72
2022-10-11T05:37:32.597Z,6.71
2022-10-11T05:38:04.762Z,6.70
2022-10-11T05:38:37.489Z,6.68
2022-10-11T05:39:12.171Z,6.68
2022-10-11T05:39:44.257Z,6.66
2022-10-11T05:40:16.467Z,6.64
2022-10-11T05:40:52.226Z,6.64
2022-10-11T05:41:24.314Z,6.62
2022-10-11T05:41:57.002Z,6.61
2022-10-11T05:42:31.677Z,6.61
2022-10-11T05:43:04.141Z,6.59
2022-10-11T05:43:36.238Z,6.59
2022-10-11T05:44:11.257Z,6.58
2022-10-11T05:44:43.337Z,6.58
2022-10-11T05:45:15.579Z,6.59
2022-10-11T05:45:50.299Z,6.60
2022-10-11T05:46:22.486Z,6.61
2022-10-11T05:46:54.583Z,6.63
2022-10-11T05:47:29.307Z,6.63
2022-10-11T05:48:01.381Z,6.62
2022-10-11T05:48:33.750Z,6.62
2022-10-11T05:49:08.450Z,6.63
2022-10-11T05:49:43.206Z,6.62
2022-10-11T05:50:15.569Z,6.62
2022-10-11T05:50:50.341Z,6.63
2022-10-11T05:51:22.546Z,6.64
2022-10-11T05:51:54.759Z,6.65
2022-10-11T05:52:29.643Z,6.66
2022-10-11T05:53:02.106Z,6.66
2022-10-11T05:53:34.271Z,6.68
2022-10-11T05:54:09.019Z,6.69
2022-10-11T05:54:41.140Z,6.70
2022-10-11T05:55:13.524Z,6.72
2022-10-11T05:55:48.466Z,6.74
2022-10-11T05:56:22.631Z,6.74
2022-10-11T05:56:54.701Z,6.78
2022-10-11T05:57:29.501Z,6.79
2022-10-11T05:58:01.610Z,6.79
2022-10-11T05:58:35.647Z,6.79
2022-10-11T05:59:10.321Z,6.82
2022-10-11T05:59:42.688Z,6.82
2022-10-11T06:00:15.683Z,6.84
2022-10-11T06:00:50.505Z,6.84
2022-10-11T06:01:24.432Z,6.84
2022-10-11T06:01:56.658Z,6.84
2022-10-11T06:02:31.381Z,6.83
2022-10-11T06:03:03.788Z,6.83
2022-10-11T06:03:35.865Z,6.81
2022-10-11T06:04:11.873Z,6.84
2022-10-11T06:04:46.738Z,6.84
2022-10-11T06:05:18.951Z,6.85
2022-10-11T06:05:57.024Z,6.88
2022-10-11T06:06:29.521Z,6.88
2022-10-11T06:07:01.747Z,6.87
2022-10-11T06:07:38.794Z,6.89
2022-10-11T06:08:11.277Z,6.89
2022-10-11T06:08:43.766Z,6.89
2022-10-11T06:09:18.460Z,6.90
2022-10-11T06:09:51.706Z,6.95
2022-10-11T06:10:23.979Z,6.92
2022-10-11T06:10:58.638Z,6.93
2022-10-11T06:11:30.740Z,6.94
2022-10-11T06:12:03.588Z,6.95
2022-10-11T06:12:38.871Z,6.96
2022-10-11T06:13:11.067Z,6.96
2022-10-11T06:13:44.575Z,6.98
2022-10-11T06:14:19.272Z,6.99
2022-10-11T06:14:51.357Z,7.01
2022-10-11T06:15:23.568Z,7.03
2022-10-11T06:15:58.465Z,7.05
2022-10-11T06:16:30.556Z,7.05
2022-10-11T06:17:05.212Z,7.06
2022-10-11T06:17:37.397Z,7.06
2022-10-11T06:18:09.474Z,7.06
2022-10-11T06:18:44.354Z,7.08
2022-10-11T06:19:16.482Z,7.09
2022-10-11T06:19:51.688Z,7.11
2022-10-11T06:20:26.489Z,7.12
2022-10-11T06:20:58.759Z,7.12
2022-10-11T06:21:31.339Z,7.14
2022-10-11T06:22:06.234Z,7.15
2022-10-11T06:22:39.187Z,7.16
2022-10-11T06:23:11.281Z,7.16
2022-10-11T06:23:46.030Z,7.18
2022-10-11T06:24:18.159Z,7.18
2022-10-11T06:24:50.290Z,7.20
2022-10-11T06:25:24.947Z,7.22
2022-10-11T06:25:58.220Z,7.23
2022-10-11T06:26:30.804Z,7.24
2022-10-11T06:27:05.510Z,7.27
2022-10-11T06:27:37.637Z,7.27
2022-10-11T06:28:09.776Z,7.28
2022-10-11T06:28:44.571Z,7.30
2022-10-11T06:29:16.686Z,7.30
2022-10-11T06:29:49.213Z,7.31
2022-10-11T06:30:24.382Z,7.33
2022-10-11T06:30:56.849Z,7.35
2022-10-11T06:31:31.571Z,7.36
2022-10-11T06:32:03.915Z,7.37
2022-10-11T06:32:36.081Z,7.40
2022-10-11T06:33:10.834Z,7.41
2022-10-11T06:33:42.991Z,7.42
2022-10-11T06:34:18.215Z,7.45
2022-10-11T06:34:52.943Z,7.46
2022-10-11T06:35:25.196Z,7.48
2022-10-11T06:36:01.063Z,7.50
2022-10-11T06:36:33.230Z,7.50
2022-10-11T06:37:05.310Z,7.52
2022-10-11T06:37:39.985Z,7.54
2022-10-11T06:38:12.208Z,7.54
2022-10-11T06:38:45.557Z,7.56
2022-10-11T06:39:20.311Z,7.57
2022-10-11T06:39:52.370Z,7.58
2022-10-11T06:40:24.758Z,7.60
2022-10-11T06:40:59.399Z,7.61
2022-10-11T06:41:31.500Z,7.63
2022-10-11T06:42:03.840Z,7.64
2022-10-11T06:42:38.574Z,7.65
2022-10-11T06:43:10.664Z,7.68
2022-10-11T06:43:42.836Z,7.69
2022-10-11T06:44:17.898Z,7.71
2022-10-11T06:44:49.975Z,7.72
2022-10-11T06:45:22.098Z,7.74
2022-10-11T06:46:02.029Z,7.74
2022-10-11T06:46:34.254Z,7.74
2022-10-11T06:47:07.171Z,7.76
2022-10-11T06:47:41.890Z,7.76
2022-10-11T06:48:14.417Z,7.76
2022-10-11T06:48:47.754Z,7.79
2022-10-11T06:49:23.602Z,7.79
2022-10-11T06:49:58.405Z,7.78
2022-10-11T06:50:54.765Z,7.80
2022-10-11T06:51:27.307Z,7.76
2022-10-11T06:51:59.506Z,7.78
2022-10-11T06:52:34.146Z,7.81
2022-10-11T06:53:07.197Z,7.82
2022-10-11T06:53:40.298Z,7.84
2022-10-11T06:54:17.354Z,7.86
2022-10-11T06:54:49.444Z,7.85
2022-10-11T06:55:21.517Z,7.87
2022-10-11T06:55:56.158Z,7.88
2022-10-11T06:56:30.555Z,7.89
2022-10-11T06:57:05.247Z,7.89
2022-10-11T06:57:37.433Z,7.91
2022-10-11T06:58:12.638Z,7.92
2022-10-11T06:58:44.795Z,7.93
2022-10-11T06:59:16.966Z,7.94
2022-10-11T06:59:51.619Z,7.96
2022-10-11T07:00:23.727Z,7.96
2022-10-11T07:00:59.776Z,7.97
2022-10-11T07:01:34.595Z,7.97
2022-10-11T07:02:06.935Z,8.00
2022-10-11T07:02:39.025Z,8.01
2022-10-11T07:03:13.859Z,8.04
2022-10-11T07:03:46.111Z,8.04
2022-10-11T07:04:20.906Z,8.07
2022-10-11T07:04:53.090Z,8.08
2022-10-11T07:05:32.150Z,8.10
2022-10-11T07:06:06.801Z,8.09
2022-10-11T07:06:40.970Z,8.10
2022-10-11T07:07:16.350Z,8.10
2022-10-11T07:07:48.422Z,8.13
2022-10-11T07:08:20.526Z,8.15
2022-10-11T07:08:55.905Z,8.14
2022-10-11T07:09:28.336Z,8.18
2022-10-11T07:10:00.450Z,8.20
2022-10-11T07:10:35.098Z,8.21
2022-10-11T07:11:09.443Z,8.22
2022-10-11T07:11:44.121Z,8.23
2022-10-11T07:12:16.540Z,8.24
2022-10-11T07:12:48.718Z,8.26
2022-10-11T07:13:24.573Z,8.27
2022-10-11T07:13:58.554Z,8.29
2022-10-11T07:14:33.395Z,8.30
2022-10-11T07:15:06.387Z,8.31
2022-10-11T07:15:41.331Z,8.32
2022-10-11T07:16:13.428Z,8.33
2022-10-11T07:16:45.592Z,8.35
2022-10-11T07:17:20.908Z,8.36
2022-10-11T07:17:52.991Z,8.36
2022-10-11T07:18:25.141Z,8.38
2022-10-11T07:19:03.179Z,8.39
2022-10-11T07:19:35.495Z,8.39
2022-10-11T07:20:08.841Z,8.42
2022-10-11T07:20:46.655Z,8.43
2022-10-11T07:21:18.770Z,8.44
2022-10-11T07:21:50.865Z,8.45
2022-10-11T07:22:25.568Z,8.48
2022-10-11T07:22:58.021Z,8.49
2022-10-11T07:23:30.387Z,8.51
2022-10-11T07:24:05.444Z,8.52
2022-10-11T07:24:37.575Z,8.54
2022-10-11T07:25:10.127Z,8.57
2022-10-11T07:25:45.004Z,8.59
2022-10-11T07:26:17.217Z,8.60
2022-10-11T07:26:51.913Z,8.62
2022-10-11T07:27:24.137Z,8.63
2022-10-11T07:27:56.261Z,8.65
2022-10-11T07:28:31.635Z,8.68
2022-10-11T07:29:04.016Z,8.69
2022-10-11T07:29:38.767Z,8.70
2022-10-11T07:30:11.883Z,8.72
2022-10-11T07:30:44.264Z,8.73
2022-10-11T07:31:21.797Z,8.75
2022-10-11T07:31:53.894Z,8.77
2022-10-11T07:32:26.042Z,8.79
2022-10-11T07:33:00.705Z,8.79
2022-10-11T07:33:32.977Z,8.81
2022-10-11T07:34:07.675Z,8.82
2022-10-11T07:34:39.785Z,8.84
2022-10-11T07:35:14.480Z,8.87
2022-10-11T07:35:49.642Z,8.87
2022-10-11T07:36:25.950Z,8.88
2022-10-11T07:36:58.022Z,8.89
2022-10-11T07:37:30.093Z,8.91
2022-10-11T07:38:04.962Z,8.93
2022-10-11T07:38:40.191Z,8.93
2022-10-11T07:39:14.858Z,8.94
2022-10-11T07:39:49.223Z,8.96
2022-10-11T07:40:21.298Z,8.97
2022-10-11T07:40:56.333Z,8.97
2022-10-11T07:41:28.404Z,9.05
2022-10-11T07:42:03.532Z,9.03
2022-10-11T07:42:35.615Z,9.03
2022-10-11T07:43:07.701Z,9.06
2022-10-11T07:43:43.622Z,9.06
2022-10-11T07:44:15.866Z,9.07
2022-10-11T07:44:48.311Z,9.08
2022-10-11T07:45:22.963Z,9.09
2022-10-11T07:45:55.706Z,9.10